sensor_id;sensor_type;location;lat;lon;timestamp;P1;durP1;ratioP1;P2;durP2;ratioP2
43086;SDS011;28708;52.224;6.924;2022-12-18T00:00:29;111.97;;;43.10;;
43086;SDS011;28708;52.224;6.924;2022-12-18T00:02:55;117.93;;;43.83;;
43086;SDS011;28708;52.224;6.924;2022-12-18T00:05:21;121.80;;;45.55;;
43086;SDS011;28708;52.224;6.924;2022-12-18T00:07:46;118.43;;;45.10;;
43086;SDS011;28708;52.224;6.924;2022-12-18T00:10:12;123.73;;;47.27;;
43086;SDS011;28708;52.224;6.924;2022-12-18T00:12:38;115.67;;;45.50;;
43086;SDS011;28708;52.224;6.924;2022-12-18T00:15:03;135.10;;;55.23;;
43086;SDS011;28708;52.224;6.924;2022-12-18T00:17:30;122.25;;;45.50;;
43086;SDS011;28708;52.224;6.924;2022-12-18T00:19:55;119.43;;;42.90;;
43086;SDS011;28708;52.224;6.924;2022-12-18T00:22:21;119.13;;;45.30;;
43086;SDS011;28708;52.224;6.924;2022-12-18T00:24:46;126.37;;;45.17;;
43086;SDS011;28708;52.224;6.924;2022-12-18T00:27:12;127.70;;;46.23;;
43086;SDS011;28708;52.224;6.924;2022-12-18T00:29:41;115.53;;;44.97;;
43086;SDS011;28708;52.224;6.924;2022-12-18T00:32:06;125.00;;;47.45;;
43086;SDS011;28708;52.224;6.924;2022-12-18T00:34:32;109.10;;;44.57;;
43086;SDS011;28708;52.224;6.924;2022-12-18T00:36:57;117.03;;;43.27;;
43086;SDS011;28708;52.224;6.924;2022-12-18T00:39:23;109.77;;;41.37;;
43086;SDS011;28708;52.224;6.924;2022-12-18T00:41:49;110.67;;;42.27;;
43086;SDS011;28708;52.224;6.924;2022-12-18T00:44:33;106.97;;;40.08;;
43086;SDS011;28708;52.224;6.924;2022-12-18T00:46:58;107.80;;;41.43;;
43086;SDS011;28708;52.224;6.924;2022-12-18T00:49:24;113.67;;;42.07;;
43086;SDS011;28708;52.224;6.924;2022-12-18T00:51:50;117.07;;;42.00;;
43086;SDS011;28708;52.224;6.924;2022-12-18T00:54:15;102.80;;;42.07;;
43086;SDS011;28708;52.224;6.924;2022-12-18T00:56:43;108.60;;;40.90;;
43086;SDS011;28708;52.224;6.924;2022-12-18T00:59:08;102.53;;;40.27;;
43086;SDS011;28708;52.224;6.924;2022-12-18T01:01:34;100.73;;;40.20;;
43086;SDS011;28708;52.224;6.924;2022-12-18T01:04:00;109.93;;;42.53;;
43086;SDS011;28708;52.224;6.924;2022-12-18T01:06:27;98.35;;;41.13;;
43086;SDS011;28708;52.224;6.924;2022-12-18T01:08:53;109.23;;;40.97;;
43086;SDS011;28708;52.224;6.924;2022-12-18T01:11:20;94.47;;;38.63;;
43086;SDS011;28708;52.224;6.924;2022-12-18T01:13:47;93.35;;;40.35;;
43086;SDS011;28708;52.224;6.924;2022-12-18T01:16:13;93.60;;;41.58;;
43086;SDS011;28708;52.224;6.924;2022-12-18T01:18:41;91.38;;;36.63;;
43086;SDS011;28708;52.224;6.924;2022-12-18T01:21:08;89.85;;;38.60;;
43086;SDS011;28708;52.224;6.924;2022-12-18T01:23:36;94.75;;;38.45;;
43086;SDS011;28708;52.224;6.924;2022-12-18T01:26:09;87.57;;;37.20;;
43086;SDS011;28708;52.224;6.924;2022-12-18T01:28:38;91.63;;;37.67;;
43086;SDS011;28708;52.224;6.924;2022-12-18T01:31:11;90.95;;;38.90;;
43086;SDS011;28708;52.224;6.924;2022-12-18T01:33:40;85.57;;;36.75;;
43086;SDS011;28708;52.224;6.924;2022-12-18T01:36:06;91.67;;;36.50;;
43086;SDS011;28708;52.224;6.924;2022-12-18T01:38:31;93.57;;;37.50;;
43086;SDS011;28708;52.224;6.924;2022-12-18T01:40:58;81.97;;;35.67;;
43086;SDS011;28708;52.224;6.924;2022-12-18T01:43:44;92.22;;;37.60;;
43086;SDS011;28708;52.224;6.924;2022-12-18T01:46:25;87.47;;;37.20;;
43086;SDS011;28708;52.224;6.924;2022-12-18T01:48:58;88.10;;;35.58;;
43086;SDS011;28708;52.224;6.924;2022-12-18T01:51:26;79.63;;;33.58;;
43086;SDS011;28708;52.224;6.924;2022-12-18T01:53:54;88.80;;;35.55;;
43086;SDS011;28708;52.224;6.924;2022-12-18T01:56:20;83.77;;;36.87;;
43086;SDS011;28708;52.224;6.924;2022-12-18T01:58:51;80.68;;;34.72;;
43086;SDS011;28708;52.224;6.924;2022-12-18T02:01:22;80.00;;;34.25;;
43086;SDS011;28708;52.224;6.924;2022-12-18T02:03:49;83.20;;;34.75;;
43086;SDS011;28708;52.224;6.924;2022-12-18T02:06:16;80.85;;;34.75;;
43086;SDS011;28708;52.224;6.924;2022-12-18T02:09:13;79.47;;;33.55;;
43086;SDS011;28708;52.224;6.924;2022-12-18T02:11:45;84.47;;;35.35;;
43086;SDS011;28708;52.224;6.924;2022-12-18T02:22:57;79.45;;;34.03;;
43086;SDS011;28708;52.224;6.924;2022-12-18T02:28:28;82.03;;;34.70;;
43086;SDS011;28708;52.224;6.924;2022-12-18T02:31:03;83.90;;;35.13;;
43086;SDS011;28708;52.224;6.924;2022-12-18T02:33:33;80.05;;;35.38;;
43086;SDS011;28708;52.224;6.924;2022-12-18T02:36:00;82.43;;;34.83;;
43086;SDS011;28708;52.224;6.924;2022-12-18T02:38:30;85.60;;;35.35;;
43086;SDS011;28708;52.224;6.924;2022-12-18T02:41:03;85.28;;;34.15;;
43086;SDS011;28708;52.224;6.924;2022-12-18T02:43:30;88.65;;;35.55;;
43086;SDS011;28708;52.224;6.924;2022-12-18T02:45:58;83.90;;;34.60;;
43086;SDS011;28708;52.224;6.924;2022-12-18T02:48:32;78.50;;;35.08;;
43086;SDS011;28708;52.224;6.924;2022-12-18T02:56:48;76.80;;;31.40;;
43086;SDS011;28708;52.224;6.924;2022-12-18T02:59:21;75.47;;;34.95;;
43086;SDS011;28708;52.224;6.924;2022-12-18T03:02:02;78.90;;;31.67;;
43086;SDS011;28708;52.224;6.924;2022-12-18T03:04:42;80.18;;;34.42;;
43086;SDS011;28708;52.224;6.924;2022-12-18T03:07:16;74.32;;;32.63;;
43086;SDS011;28708;52.224;6.924;2022-12-18T03:09:51;77.85;;;32.38;;
43086;SDS011;28708;52.224;6.924;2022-12-18T03:12:27;79.85;;;34.22;;
43086;SDS011;28708;52.224;6.924;2022-12-18T03:17:44;75.78;;;34.05;;
43086;SDS011;28708;52.224;6.924;2022-12-18T03:20:17;79.68;;;34.45;;
43086;SDS011;28708;52.224;6.924;2022-12-18T03:22:46;81.65;;;33.08;;
43086;SDS011;28708;52.224;6.924;2022-12-18T03:25:19;84.90;;;32.88;;
43086;SDS011;28708;52.224;6.924;2022-12-18T03:27:47;84.15;;;33.78;;
43086;SDS011;28708;52.224;6.924;2022-12-18T03:30:16;72.03;;;31.70;;
43086;SDS011;28708;52.224;6.924;2022-12-18T03:32:52;77.97;;;34.13;;
43086;SDS011;28708;52.224;6.924;2022-12-18T03:35:42;77.07;;;33.28;;
43086;SDS011;28708;52.224;6.924;2022-12-18T03:38:10;77.60;;;33.53;;
43086;SDS011;28708;52.224;6.924;2022-12-18T03:43:20;76.45;;;32.95;;
43086;SDS011;28708;52.224;6.924;2022-12-18T03:46:02;70.53;;;30.88;;
43086;SDS011;28708;52.224;6.924;2022-12-18T03:48:36;69.10;;;31.75;;
43086;SDS011;28708;52.224;6.924;2022-12-18T03:51:22;62.35;;;29.70;;
43086;SDS011;28708;52.224;6.924;2022-12-18T03:54:00;73.20;;;29.90;;
43086;SDS011;28708;52.224;6.924;2022-12-18T03:56:33;61.30;;;27.80;;
43086;SDS011;28708;52.224;6.924;2022-12-18T03:59:04;65.22;;;31.17;;
43086;SDS011;28708;52.224;6.924;2022-12-18T04:01:37;72.45;;;30.33;;
43086;SDS011;28708;52.224;6.924;2022-12-18T04:04:05;67.97;;;31.30;;
43086;SDS011;28708;52.224;6.924;2022-12-18T04:06:36;64.63;;;28.92;;
43086;SDS011;28708;52.224;6.924;2022-12-18T04:09:03;60.88;;;28.90;;
43086;SDS011;28708;52.224;6.924;2022-12-18T04:14:01;62.45;;;27.65;;
43086;SDS011;28708;52.224;6.924;2022-12-18T04:16:27;65.93;;;29.27;;
43086;SDS011;28708;52.224;6.924;2022-12-18T04:18:57;64.15;;;29.13;;
43086;SDS011;28708;52.224;6.924;2022-12-18T04:21:25;66.70;;;28.77;;
43086;SDS011;28708;52.224;6.924;2022-12-18T04:23:51;65.70;;;29.08;;
43086;SDS011;28708;52.224;6.924;2022-12-18T04:26:20;60.83;;;27.02;;
43086;SDS011;28708;52.224;6.924;2022-12-18T04:28:56;63.40;;;29.38;;
43086;SDS011;28708;52.224;6.924;2022-12-18T04:31:21;67.53;;;28.53;;
43086;SDS011;28708;52.224;6.924;2022-12-18T04:33:47;64.80;;;27.37;;
43086;SDS011;28708;52.224;6.924;2022-12-18T04:36:13;64.30;;;27.77;;
43086;SDS011;28708;52.224;6.924;2022-12-18T04:38:39;63.95;;;28.77;;
43086;SDS011;28708;52.224;6.924;2022-12-18T04:41:09;64.63;;;25.95;;
43086;SDS011;28708;52.224;6.924;2022-12-18T04:43:39;70.22;;;28.90;;
43086;SDS011;28708;52.224;6.924;2022-12-18T04:46:06;61.80;;;27.95;;
43086;SDS011;28708;52.224;6.924;2022-12-18T04:48:32;63.33;;;28.17;;
43086;SDS011;28708;52.224;6.924;2022-12-18T04:51:01;61.80;;;28.77;;
43086;SDS011;28708;52.224;6.924;2022-12-18T04:53:27;65.17;;;28.40;;
43086;SDS011;28708;52.224;6.924;2022-12-18T04:58:47;58.67;;;27.23;;
43086;SDS011;28708;52.224;6.924;2022-12-18T05:01:14;63.07;;;27.37;;
43086;SDS011;28708;52.224;6.924;2022-12-18T05:03:41;59.25;;;26.92;;
43086;SDS011;28708;52.224;6.924;2022-12-18T05:06:06;62.60;;;28.10;;
43086;SDS011;28708;52.224;6.924;2022-12-18T05:08:33;66.88;;;29.38;;
43086;SDS011;28708;52.224;6.924;2022-12-18T05:11:06;60.22;;;27.33;;
43086;SDS011;28708;52.224;6.924;2022-12-18T05:13:34;64.57;;;27.80;;
43086;SDS011;28708;52.224;6.924;2022-12-18T05:16:00;63.05;;;27.23;;
43086;SDS011;28708;52.224;6.924;2022-12-18T05:18:27;62.47;;;27.55;;
43086;SDS011;28708;52.224;6.924;2022-12-18T05:20:53;58.80;;;27.03;;
43086;SDS011;28708;52.224;6.924;2022-12-18T05:23:20;56.72;;;26.52;;
43086;SDS011;28708;52.224;6.924;2022-12-18T05:26:20;59.05;;;25.70;;
43086;SDS011;28708;52.224;6.924;2022-12-18T05:28:42;56.13;;;26.17;;
43086;SDS011;28708;52.224;6.924;2022-12-18T05:31:07;59.87;;;28.30;;
43086;SDS011;28708;52.224;6.924;2022-12-18T05:33:34;57.43;;;26.57;;
43086;SDS011;28708;52.224;6.924;2022-12-18T05:36:04;59.50;;;26.38;;
43086;SDS011;28708;52.224;6.924;2022-12-18T05:38:31;60.20;;;27.02;;
43086;SDS011;28708;52.224;6.924;2022-12-18T05:40:58;55.20;;;25.92;;
43086;SDS011;28708;52.224;6.924;2022-12-18T05:43:24;55.37;;;26.57;;
43086;SDS011;28708;52.224;6.924;2022-12-18T05:45:51;56.35;;;27.00;;
43086;SDS011;28708;52.224;6.924;2022-12-18T05:48:18;54.53;;;24.83;;
43086;SDS011;28708;52.224;6.924;2022-12-18T05:50:44;52.92;;;25.20;;
43086;SDS011;28708;52.224;6.924;2022-12-18T05:53:12;57.30;;;26.15;;
43086;SDS011;28708;52.224;6.924;2022-12-18T05:55:40;54.63;;;25.70;;
43086;SDS011;28708;52.224;6.924;2022-12-18T05:58:07;54.03;;;26.17;;
43086;SDS011;28708;52.224;6.924;2022-12-18T06:00:35;55.42;;;23.92;;
43086;SDS011;28708;52.224;6.924;2022-12-18T06:03:05;58.47;;;26.73;;
43086;SDS011;28708;52.224;6.924;2022-12-18T06:05:35;53.22;;;25.27;;
43086;SDS011;28708;52.224;6.924;2022-12-18T06:08:02;56.65;;;25.60;;
43086;SDS011;28708;52.224;6.924;2022-12-18T06:10:27;56.10;;;26.30;;
43086;SDS011;28708;52.224;6.924;2022-12-18T06:12:53;52.03;;;25.37;;
43086;SDS011;28708;52.224;6.924;2022-12-18T06:15:19;53.80;;;24.20;;
43086;SDS011;28708;52.224;6.924;2022-12-18T06:17:44;54.47;;;25.40;;
43086;SDS011;28708;52.224;6.924;2022-12-18T06:20:10;54.73;;;25.87;;
43086;SDS011;28708;52.224;6.924;2022-12-18T06:22:36;55.80;;;25.70;;
43086;SDS011;28708;52.224;6.924;2022-12-18T06:25:01;48.97;;;23.73;;
43086;SDS011;28708;52.224;6.924;2022-12-18T06:27:27;54.00;;;24.90;;
43086;SDS011;28708;52.224;6.924;2022-12-18T06:29:53;53.00;;;25.40;;
43086;SDS011;28708;52.224;6.924;2022-12-18T06:32:18;52.73;;;22.90;;
43086;SDS011;28708;52.224;6.924;2022-12-18T06:34:44;49.07;;;23.83;;
43086;SDS011;28708;52.224;6.924;2022-12-18T06:37:10;52.03;;;24.03;;
43086;SDS011;28708;52.224;6.924;2022-12-18T06:39:35;50.03;;;23.33;;
43086;SDS011;28708;52.224;6.924;2022-12-18T06:42:01;51.40;;;23.30;;
43086;SDS011;28708;52.224;6.924;2022-12-18T06:44:27;50.35;;;23.02;;
43086;SDS011;28708;52.224;6.924;2022-12-18T06:46:53;51.47;;;23.77;;
43086;SDS011;28708;52.224;6.924;2022-12-18T06:49:19;48.73;;;23.10;;
43086;SDS011;28708;52.224;6.924;2022-12-18T06:51:44;54.30;;;23.70;;
43086;SDS011;28708;52.224;6.924;2022-12-18T06:54:10;48.27;;;22.57;;
43086;SDS011;28708;52.224;6.924;2022-12-18T06:56:35;45.47;;;23.63;;
43086;SDS011;28708;52.224;6.924;2022-12-18T06:59:01;61.57;;;25.10;;
43086;SDS011;28708;52.224;6.924;2022-12-18T07:01:27;47.87;;;22.77;;
43086;SDS011;28708;52.224;6.924;2022-12-18T07:03:53;51.77;;;24.10;;
43086;SDS011;28708;52.224;6.924;2022-12-18T07:06:21;48.50;;;22.85;;
43086;SDS011;28708;52.224;6.924;2022-12-18T07:08:49;47.35;;;22.73;;
43086;SDS011;28708;52.224;6.924;2022-12-18T07:11:16;47.63;;;23.20;;
43086;SDS011;28708;52.224;6.924;2022-12-18T07:13:43;47.78;;;22.80;;
43086;SDS011;28708;52.224;6.924;2022-12-18T07:16:10;48.55;;;23.00;;
43086;SDS011;28708;52.224;6.924;2022-12-18T07:18:37;51.47;;;23.10;;
43086;SDS011;28708;52.224;6.924;2022-12-18T07:21:06;48.60;;;22.63;;
43086;SDS011;28708;52.224;6.924;2022-12-18T07:23:34;45.67;;;23.13;;
43086;SDS011;28708;52.224;6.924;2022-12-18T07:26:01;48.13;;;22.85;;
43086;SDS011;28708;52.224;6.924;2022-12-18T07:28:35;43.30;;;21.83;;
43086;SDS011;28708;52.224;6.924;2022-12-18T07:31:05;50.55;;;23.80;;
43086;SDS011;28708;52.224;6.924;2022-12-18T07:33:32;48.00;;;23.13;;
43086;SDS011;28708;52.224;6.924;2022-12-18T07:35:59;47.25;;;23.23;;
43086;SDS011;28708;52.224;6.924;2022-12-18T07:38:25;50.22;;;22.20;;
43086;SDS011;28708;52.224;6.924;2022-12-18T07:40:51;50.27;;;22.50;;
43086;SDS011;28708;52.224;6.924;2022-12-18T07:43:16;50.83;;;23.13;;
43086;SDS011;28708;52.224;6.924;2022-12-18T07:45:43;46.90;;;23.02;;
43086;SDS011;28708;52.224;6.924;2022-12-18T07:48:09;44.00;;;22.07;;
43086;SDS011;28708;52.224;6.924;2022-12-18T07:50:35;42.85;;;21.05;;
43086;SDS011;28708;52.224;6.924;2022-12-18T07:53:01;43.72;;;21.92;;
43086;SDS011;28708;52.224;6.924;2022-12-18T07:55:29;44.03;;;22.08;;
43086;SDS011;28708;52.224;6.924;2022-12-18T07:57:56;45.40;;;21.75;;
43086;SDS011;28708;52.224;6.924;2022-12-18T08:00:22;43.30;;;21.07;;
43086;SDS011;28708;52.224;6.924;2022-12-18T08:02:48;43.05;;;21.55;;
43086;SDS011;28708;52.224;6.924;2022-12-18T08:05:14;42.87;;;21.10;;
43086;SDS011;28708;52.224;6.924;2022-12-18T08:07:39;37.57;;;19.17;;
43086;SDS011;28708;52.224;6.924;2022-12-18T08:10:05;42.27;;;19.70;;
43086;SDS011;28708;52.224;6.924;2022-12-18T08:12:32;42.25;;;21.17;;
43086;SDS011;28708;52.224;6.924;2022-12-18T08:14:57;42.57;;;20.57;;
43086;SDS011;28708;52.224;6.924;2022-12-18T08:17:23;39.20;;;20.20;;
43086;SDS011;28708;52.224;6.924;2022-12-18T08:19:48;39.43;;;19.80;;
43086;SDS011;28708;52.224;6.924;2022-12-18T08:22:14;39.20;;;19.63;;
43086;SDS011;28708;52.224;6.924;2022-12-18T08:24:40;38.50;;;19.50;;
43086;SDS011;28708;52.224;6.924;2022-12-18T08:27:05;39.47;;;18.83;;
43086;SDS011;28708;52.224;6.924;2022-12-18T08:29:32;38.70;;;19.60;;
43086;SDS011;28708;52.224;6.924;2022-12-18T08:31:58;40.95;;;19.50;;
43086;SDS011;28708;52.224;6.924;2022-12-18T08:34:25;40.72;;;19.83;;
43086;SDS011;28708;52.224;6.924;2022-12-18T08:36:51;39.00;;;18.47;;
43086;SDS011;28708;52.224;6.924;2022-12-18T08:39:17;41.33;;;21.97;;
43086;SDS011;28708;52.224;6.924;2022-12-18T08:41:42;51.27;;;22.70;;
43086;SDS011;28708;52.224;6.924;2022-12-18T08:44:28;45.20;;;20.70;;
43086;SDS011;28708;52.224;6.924;2022-12-18T08:47:03;42.88;;;19.92;;
43086;SDS011;28708;52.224;6.924;2022-12-18T08:49:29;37.58;;;19.75;;
43086;SDS011;28708;52.224;6.924;2022-12-18T08:51:55;38.53;;;19.63;;
43086;SDS011;28708;52.224;6.924;2022-12-18T08:54:24;33.83;;;19.10;;
43086;SDS011;28708;52.224;6.924;2022-12-18T08:56:50;34.80;;;18.95;;
43086;SDS011;28708;52.224;6.924;2022-12-18T08:59:17;36.55;;;17.90;;
43086;SDS011;28708;52.224;6.924;2022-12-18T09:01:43;32.15;;;17.48;;
43086;SDS011;28708;52.224;6.924;2022-12-18T09:04:10;38.40;;;18.27;;
43086;SDS011;28708;52.224;6.924;2022-12-18T09:06:36;36.13;;;18.90;;
43086;SDS011;28708;52.224;6.924;2022-12-18T09:09:02;38.03;;;21.08;;
43086;SDS011;28708;52.224;6.924;2022-12-18T09:11:29;32.55;;;18.70;;
43086;SDS011;28708;52.224;6.924;2022-12-18T09:13:56;31.65;;;17.55;;
43086;SDS011;28708;52.224;6.924;2022-12-18T09:16:22;32.85;;;17.58;;
43086;SDS011;28708;52.224;6.924;2022-12-18T09:18:49;33.08;;;18.90;;
43086;SDS011;28708;52.224;6.924;2022-12-18T09:21:16;34.33;;;17.10;;
43086;SDS011;28708;52.224;6.924;2022-12-18T09:23:43;31.02;;;17.15;;
43086;SDS011;28708;52.224;6.924;2022-12-18T09:26:13;33.78;;;17.33;;
43086;SDS011;28708;52.224;6.924;2022-12-18T09:28:39;32.67;;;17.10;;
43086;SDS011;28708;52.224;6.924;2022-12-18T09:31:06;30.83;;;16.60;;
43086;SDS011;28708;52.224;6.924;2022-12-18T09:33:33;33.67;;;17.27;;
43086;SDS011;28708;52.224;6.924;2022-12-18T09:36:02;35.33;;;17.20;;
43086;SDS011;28708;52.224;6.924;2022-12-18T09:38:29;29.37;;;16.83;;
43086;SDS011;28708;52.224;6.924;2022-12-18T09:40:58;31.83;;;15.73;;
43086;SDS011;28708;52.224;6.924;2022-12-18T09:43:29;24.33;;;13.53;;
43086;SDS011;28708;52.224;6.924;2022-12-18T09:46:01;26.97;;;14.87;;
43086;SDS011;28708;52.224;6.924;2022-12-18T09:48:34;26.00;;;13.47;;
43086;SDS011;28708;52.224;6.924;2022-12-18T09:51:08;21.98;;;13.30;;
43086;SDS011;28708;52.224;6.924;2022-12-18T09:53:41;22.60;;;12.70;;
43086;SDS011;28708;52.224;6.924;2022-12-18T09:56:14;23.83;;;13.93;;
43086;SDS011;28708;52.224;6.924;2022-12-18T09:58:45;28.90;;;13.93;;
43086;SDS011;28708;52.224;6.924;2022-12-18T10:01:27;24.77;;;14.23;;
43086;SDS011;28708;52.224;6.924;2022-12-18T10:03:54;27.87;;;14.57;;
43086;SDS011;28708;52.224;6.924;2022-12-18T10:06:22;25.87;;;15.00;;
43086;SDS011;28708;52.224;6.924;2022-12-18T10:14:23;25.87;;;13.40;;
43086;SDS011;28708;52.224;6.924;2022-12-18T10:27:24;23.07;;;11.60;;
43086;SDS011;28708;52.224;6.924;2022-12-18T10:29:52;21.70;;;12.47;;
43086;SDS011;28708;52.224;6.924;2022-12-18T10:32:25;21.00;;;12.33;;
43086;SDS011;28708;52.224;6.924;2022-12-18T10:34:54;20.37;;;12.03;;
43086;SDS011;28708;52.224;6.924;2022-12-18T10:37:23;25.33;;;12.30;;
43086;SDS011;28708;52.224;6.924;2022-12-18T10:40:12;22.30;;;13.80;;
43086;SDS011;28708;52.224;6.924;2022-12-18T10:42:38;24.77;;;15.33;;
43086;SDS011;28708;52.224;6.924;2022-12-18T10:45:15;23.73;;;13.27;;
43086;SDS011;28708;52.224;6.924;2022-12-18T10:47:49;21.67;;;11.83;;
43086;SDS011;28708;52.224;6.924;2022-12-18T10:50:34;20.07;;;11.73;;
43086;SDS011;28708;52.224;6.924;2022-12-18T10:53:03;23.07;;;12.30;;
43086;SDS011;28708;52.224;6.924;2022-12-18T10:55:31;22.10;;;12.37;;
43086;SDS011;28708;52.224;6.924;2022-12-18T10:58:13;23.97;;;13.83;;
43086;SDS011;28708;52.224;6.924;2022-12-18T11:00:42;23.00;;;12.57;;
43086;SDS011;28708;52.224;6.924;2022-12-18T11:03:28;23.93;;;13.70;;
43086;SDS011;28708;52.224;6.924;2022-12-18T11:08:31;24.00;;;11.00;;
43086;SDS011;28708;52.224;6.924;2022-12-18T11:10:57;23.83;;;11.90;;
43086;SDS011;28708;52.224;6.924;2022-12-18T11:13:24;21.37;;;11.23;;
43086;SDS011;28708;52.224;6.924;2022-12-18T11:15:51;21.23;;;12.03;;
43086;SDS011;28708;52.224;6.924;2022-12-18T11:20:55;19.80;;;11.30;;
43086;SDS011;28708;52.224;6.924;2022-12-18T11:23:33;22.50;;;12.83;;
43086;SDS011;28708;52.224;6.924;2022-12-18T11:26:01;27.57;;;13.63;;
43086;SDS011;28708;52.224;6.924;2022-12-18T11:28:49;26.50;;;15.20;;
43086;SDS011;28708;52.224;6.924;2022-12-18T11:36:21;26.10;;;14.83;;
43086;SDS011;28708;52.224;6.924;2022-12-18T11:38:48;33.53;;;16.47;;
43086;SDS011;28708;52.224;6.924;2022-12-18T11:44:11;19.17;;;11.80;;
43086;SDS011;28708;52.224;6.924;2022-12-18T11:46:51;20.67;;;11.87;;
43086;SDS011;28708;52.224;6.924;2022-12-18T11:49:22;22.23;;;12.90;;
43086;SDS011;28708;52.224;6.924;2022-12-18T11:55:07;19.20;;;11.27;;
43086;SDS011;28708;52.224;6.924;2022-12-18T12:00:40;18.60;;;11.20;;
43086;SDS011;28708;52.224;6.924;2022-12-18T12:06:10;19.00;;;11.10;;
43086;SDS011;28708;52.224;6.924;2022-12-18T12:19:59;19.37;;;11.43;;
43086;SDS011;28708;52.224;6.924;2022-12-18T12:25:25;22.60;;;12.53;;
43086;SDS011;28708;52.224;6.924;2022-12-18T12:30:55;21.67;;;12.50;;
43086;SDS011;28708;52.224;6.924;2022-12-18T12:33:47;23.47;;;11.20;;
43086;SDS011;28708;52.224;6.924;2022-12-18T12:39:06;22.40;;;12.50;;
43086;SDS011;28708;52.224;6.924;2022-12-18T12:41:35;19.13;;;10.53;;
43086;SDS011;28708;52.224;6.924;2022-12-18T12:44:30;18.13;;;10.40;;
43086;SDS011;28708;52.224;6.924;2022-12-18T12:47:02;21.20;;;11.80;;
43086;SDS011;28708;52.224;6.924;2022-12-18T12:49:36;23.03;;;13.20;;
43086;SDS011;28708;52.224;6.924;2022-12-18T12:52:11;18.83;;;11.40;;
43086;SDS011;28708;52.224;6.924;2022-12-18T12:54:42;20.57;;;11.50;;
43086;SDS011;28708;52.224;6.924;2022-12-18T12:57:12;22.00;;;12.03;;
43086;SDS011;28708;52.224;6.924;2022-12-18T13:00:01;22.97;;;12.83;;
43086;SDS011;28708;52.224;6.924;2022-12-18T13:05:18;22.00;;;11.47;;
43086;SDS011;28708;52.224;6.924;2022-12-18T13:08:09;21.27;;;12.60;;
43086;SDS011;28708;52.224;6.924;2022-12-18T13:10:37;19.00;;;10.90;;
43086;SDS011;28708;52.224;6.924;2022-12-18T13:13:06;25.10;;;14.10;;
43086;SDS011;28708;52.224;6.924;2022-12-18T13:15:39;23.60;;;12.53;;
43086;SDS011;28708;52.224;6.924;2022-12-18T13:20:45;27.40;;;13.40;;
43086;SDS011;28708;52.224;6.924;2022-12-18T13:25:55;22.27;;;12.07;;
43086;SDS011;28708;52.224;6.924;2022-12-18T13:34:18;20.07;;;10.73;;
43086;SDS011;28708;52.224;6.924;2022-12-18T13:36:46;34.30;;;22.90;;
43086;SDS011;28708;52.224;6.924;2022-12-18T13:41:52;22.27;;;12.23;;
43086;SDS011;28708;52.224;6.924;2022-12-18T13:44:58;19.87;;;11.63;;
43086;SDS011;28708;52.224;6.924;2022-12-18T13:47:33;29.17;;;14.97;;
43086;SDS011;28708;52.224;6.924;2022-12-18T13:50:09;23.87;;;12.50;;
43086;SDS011;28708;52.224;6.924;2022-12-18T13:52:49;19.77;;;11.90;;
43086;SDS011;28708;52.224;6.924;2022-12-18T13:55:18;16.97;;;10.37;;
43086;SDS011;28708;52.224;6.924;2022-12-18T13:57:45;18.53;;;11.20;;
43086;SDS011;28708;52.224;6.924;2022-12-18T14:00:27;21.57;;;12.60;;
43086;SDS011;28708;52.224;6.924;2022-12-18T14:02:54;18.53;;;10.13;;
43086;SDS011;28708;52.224;6.924;2022-12-18T14:07:50;21.15;;;10.95;;
43086;SDS011;28708;52.224;6.924;2022-12-18T14:10:17;21.87;;;11.20;;
43086;SDS011;28708;52.224;6.924;2022-12-18T14:12:47;19.03;;;10.67;;
43086;SDS011;28708;52.224;6.924;2022-12-18T14:18:03;17.00;;;10.23;;
43086;SDS011;28708;52.224;6.924;2022-12-18T14:20:54;18.20;;;11.27;;
43086;SDS011;28708;52.224;6.924;2022-12-18T14:25:57;18.43;;;11.20;;
43086;SDS011;28708;52.224;6.924;2022-12-18T14:28:24;19.00;;;11.30;;
43086;SDS011;28708;52.224;6.924;2022-12-18T14:30:51;19.93;;;10.73;;
43086;SDS011;28708;52.224;6.924;2022-12-18T14:41:03;22.57;;;13.20;;
43086;SDS011;28708;52.224;6.924;2022-12-18T14:43:32;21.63;;;11.03;;
43086;SDS011;28708;52.224;6.924;2022-12-18T14:46:00;22.53;;;12.33;;
43086;SDS011;28708;52.224;6.924;2022-12-18T14:48:37;23.40;;;12.37;;
43086;SDS011;28708;52.224;6.924;2022-12-18T14:53:59;24.67;;;11.83;;
43086;SDS011;28708;52.224;6.924;2022-12-18T14:56:33;19.13;;;11.67;;
43086;SDS011;28708;52.224;6.924;2022-12-18T14:59:02;20.77;;;12.93;;
43086;SDS011;28708;52.224;6.924;2022-12-18T15:01:30;23.63;;;12.70;;
43086;SDS011;28708;52.224;6.924;2022-12-18T15:04:02;21.23;;;12.87;;
43086;SDS011;28708;52.224;6.924;2022-12-18T15:06:33;23.90;;;13.33;;
43086;SDS011;28708;52.224;6.924;2022-12-18T15:09:20;29.47;;;17.77;;
43086;SDS011;28708;52.224;6.924;2022-12-18T15:11:49;22.63;;;15.40;;
43086;SDS011;28708;52.224;6.924;2022-12-18T15:16:58;28.63;;;19.27;;
43086;SDS011;28708;52.224;6.924;2022-12-18T15:19:33;27.83;;;16.77;;
43086;SDS011;28708;52.224;6.924;2022-12-18T15:22:20;28.17;;;16.87;;
43086;SDS011;28708;52.224;6.924;2022-12-18T15:24:57;17.03;;;10.67;;
43086;SDS011;28708;52.224;6.924;2022-12-18T15:32:35;22.37;;;12.37;;
43086;SDS011;28708;52.224;6.924;2022-12-18T15:35:12;20.97;;;12.47;;
43086;SDS011;28708;52.224;6.924;2022-12-18T15:37:39;24.10;;;14.93;;
43086;SDS011;28708;52.224;6.924;2022-12-18T15:40:05;26.80;;;18.00;;
43086;SDS011;28708;52.224;6.924;2022-12-18T15:42:32;24.47;;;14.37;;
43086;SDS011;28708;52.224;6.924;2022-12-18T15:45:16;27.17;;;16.63;;
43086;SDS011;28708;52.224;6.924;2022-12-18T15:47:43;22.53;;;13.20;;
43086;SDS011;28708;52.224;6.924;2022-12-18T15:50:09;27.80;;;16.80;;
43086;SDS011;28708;52.224;6.924;2022-12-18T15:52:42;26.00;;;17.40;;
43086;SDS011;28708;52.224;6.924;2022-12-18T15:55:13;23.13;;;14.97;;
43086;SDS011;28708;52.224;6.924;2022-12-18T15:57:58;26.93;;;14.93;;
43086;SDS011;28708;52.224;6.924;2022-12-18T16:00:24;29.77;;;17.13;;
43086;SDS011;28708;52.224;6.924;2022-12-18T16:02:49;38.47;;;23.23;;
43086;SDS011;28708;52.224;6.924;2022-12-18T16:05:16;28.17;;;17.00;;
43086;SDS011;28708;52.224;6.924;2022-12-18T16:07:43;28.90;;;15.50;;
43086;SDS011;28708;52.224;6.924;2022-12-18T16:10:09;25.63;;;16.27;;
43086;SDS011;28708;52.224;6.924;2022-12-18T16:12:35;37.30;;;19.13;;
43086;SDS011;28708;52.224;6.924;2022-12-18T16:15:02;38.97;;;20.37;;
43086;SDS011;28708;52.224;6.924;2022-12-18T16:17:29;54.43;;;28.77;;
43086;SDS011;28708;52.224;6.924;2022-12-18T16:19:55;32.70;;;21.40;;
43086;SDS011;28708;52.224;6.924;2022-12-18T16:22:21;37.43;;;21.33;;
43086;SDS011;28708;52.224;6.924;2022-12-18T16:24:48;30.00;;;15.43;;
43086;SDS011;28708;52.224;6.924;2022-12-18T16:27:14;41.70;;;36.10;;
43086;SDS011;28708;52.224;6.924;2022-12-18T16:29:40;27.87;;;17.07;;
43086;SDS011;28708;52.224;6.924;2022-12-18T16:32:05;28.40;;;16.33;;
43086;SDS011;28708;52.224;6.924;2022-12-18T16:34:32;25.90;;;16.20;;
43086;SDS011;28708;52.224;6.924;2022-12-18T16:37:03;26.43;;;14.47;;
43086;SDS011;28708;52.224;6.924;2022-12-18T16:39:31;31.47;;;24.23;;
43086;SDS011;28708;52.224;6.924;2022-12-18T16:41:58;25.70;;;15.10;;
43086;SDS011;28708;52.224;6.924;2022-12-18T16:44:24;29.43;;;16.93;;